MCNK1: Lightning C Nr Mccune, KS

Data processed at Tue May 21 2019 21:50


All information presented herein is the property of the government of the United States of America and may be revised or deleted at any time without prior notice.
Dissemination of this information without the expressed written consent of the Public Affairs Office, Tulsa District U.S. Army Corps of Engineers is strictly prohibited.
These data are gathered electronically and, as presented, have not undergone any form of quality control. These data are not guaranteed to be valid or correct.
Go to home page.
Go to station list.
Go to home page.

Downstream station:


Previous Day
Next Day
Current Day
    
SHEF ID:       MCNK1     LIGHTNING C NR MCCUNE, KS
STATION TYPE:  
Regulating: Stage =    14.50, Flow =     4070

                STAGE  RIV-FLOW  BAT-LOAD
                   ft       cfs      volt
              Ccp-Rev   Ccp-Rev   Ccp-Rev
(US/Central)
05/21 00:00     13.89      3726     12.83
05/21 01:00     14.21      3904     12.83
05/21 02:00     14.46      4047     12.83
05/21 03:00     14.64      4151     12.83
05/21 04:00     14.70      4187     12.83
05/21 05:00     14.68      4175     12.83
05/21 06:00     14.72      4198     12.83
05/21 07:00     14.79      4240     12.83
05/21 08:00     14.89      4299     12.83
05/21 09:00     15.09      4480     12.83
05/21 10:00     15.39      4875     12.83
05/21 11:00     15.93      6178     12.83
05/21 12:00     16.69      9641     12.89
05/21 13:00     17.28     13895     12.89
05/21 14:00     17.60     17180     12.83
05/21 15:00     17.71     18463     12.83
05/21 16:00     17.76     19074     13.12
05/21 17:00     17.76     19074     13.00
05/21 18:00     17.78     19324     12.95
05/21 19:00     17.74     18827     12.89
05/21 20:00     17.73     18705     12.89
05/21 21:00     17.72     18584     12.83
05/21 22:00      ----      ----      ----
05/21 23:00      ----      ----      ----